createdAt,value
2022-11-15T00:00:51.854Z,100256.34
2022-11-15T00:03:21.958Z,100260.28
2022-11-15T00:05:51.956Z,100261.50
2022-11-15T00:08:20.567Z,100249.38
2022-11-15T00:10:56.737Z,100252.28
2022-11-15T00:13:25.364Z,100257.38
2022-11-15T00:15:53.573Z,100254.69
2022-11-15T00:18:21.627Z,100256.78
2022-11-15T00:20:51.005Z,100258.34
2022-11-15T00:23:19.064Z,100245.88
2022-11-15T00:25:47.143Z,100253.78
2022-11-15T00:28:15.143Z,100261.28
2022-11-15T00:30:43.179Z,100254.38
2022-11-15T00:33:12.032Z,100252.50
2022-11-15T00:35:40.126Z,100247.72
2022-11-15T00:38:09.570Z,100251.44
2022-11-15T00:40:37.722Z,100257.94
2022-11-15T00:43:05.778Z,100247.34
2022-11-15T00:45:33.802Z,100249.38
2022-11-15T00:48:01.897Z,100248.09
2022-11-15T00:50:29.945Z,100245.00
2022-11-15T00:52:58.306Z,100247.09
2022-11-15T00:55:27.740Z,100238.97
2022-11-15T00:57:55.767Z,100231.88
2022-11-15T01:00:24.269Z,100231.69
2022-11-15T01:02:52.313Z,100234.56
2022-11-15T01:05:20.523Z,100240.19
2022-11-15T01:07:48.643Z,100239.41
2022-11-15T01:10:16.727Z,100236.03
2022-11-15T01:12:46.166Z,100236.25
2022-11-15T01:15:14.338Z,100230.03
2022-11-15T01:17:42.552Z,100228.69
2022-11-15T01:20:11.791Z,100226.97
2022-11-15T01:22:39.979Z,100218.69
2022-11-15T01:25:08.586Z,100223.66
2022-11-15T01:27:36.650Z,100221.84
2022-11-15T01:30:07.967Z,100225.75
2022-11-15T01:32:36.331Z,100226.72
2022-11-15T01:35:04.451Z,100226.50
2022-11-15T01:37:32.535Z,100226.09
2022-11-15T01:40:00.788Z,100220.78
2022-11-15T01:42:28.848Z,100218.41
2022-11-15T01:44:56.871Z,100222.56
2022-11-15T01:47:30.584Z,100206.78
2022-11-15T01:50:02.809Z,100215.78
2022-11-15T01:52:33.740Z,100207.06
2022-11-15T01:55:07.583Z,100207.03
2022-11-15T01:57:36.153Z,100207.25
2022-11-15T02:00:06.879Z,100213.13
2022-11-15T02:02:40.272Z,100213.38
2022-11-15T02:05:08.931Z,100214.47
2022-11-15T02:07:37.897Z,100213.63
2022-11-15T02:10:10.587Z,100222.19
2022-11-15T02:12:39.324Z,100208.84
2022-11-15T02:15:10.382Z,100212.91
2022-11-15T02:17:55.750Z,100209.59
2022-11-15T02:20:48.539Z,100211.06
2022-11-15T02:23:48.177Z,100205.97
2022-11-15T02:26:42.305Z,100209.34
2022-11-15T02:29:14.363Z,100205.31
2022-11-15T02:31:50.787Z,100209.69
2022-11-15T02:34:28.817Z,100201.28
2022-11-15T02:37:06.424Z,100206.41
2022-11-15T02:39:39.381Z,100204.72
2022-11-15T02:42:33.526Z,100202.47
2022-11-15T02:45:05.653Z,100195.00
2022-11-15T02:47:41.783Z,100200.16
2022-11-15T02:50:13.518Z,100199.91
2022-11-15T02:52:41.568Z,100198.09
2022-11-15T02:55:28.165Z,100201.41
2022-11-15T02:58:09.186Z,100196.06
2022-11-15T03:00:42.415Z,100189.22
2022-11-15T03:03:39.853Z,100191.09
2022-11-15T03:06:17.421Z,100192.50
2022-11-15T03:08:55.893Z,100197.66
2022-11-15T03:11:25.484Z,100197.94
2022-11-15T03:14:00.344Z,100189.44
2022-11-15T03:16:33.295Z,100197.47
2022-11-15T03:19:09.070Z,100198.56
2022-11-15T03:21:41.934Z,100198.44
2022-11-15T03:24:11.564Z,100195.63
2022-11-15T03:26:43.553Z,100204.81
2022-11-15T03:29:15.712Z,100185.66
2022-11-15T03:31:51.556Z,100186.19
2022-11-15T03:34:29.108Z,100186.56
2022-11-15T03:36:58.154Z,100181.38
2022-11-15T03:39:27.187Z,100190.88
2022-11-15T03:42:06.904Z,100181.41
2022-11-15T03:44:43.473Z,100181.50
2022-11-15T03:47:15.734Z,100174.50
2022-11-15T03:49:49.087Z,100171.31
2022-11-15T03:52:20.276Z,100164.22
2022-11-15T03:54:54.560Z,100161.75
2022-11-15T03:57:22.895Z,100163.94
2022-11-15T03:59:50.921Z,100157.00
2022-11-15T04:02:19.029Z,100163.28
2022-11-15T04:04:48.536Z,100161.69
2022-11-15T04:07:16.649Z,100156.44
2022-11-15T04:09:58.763Z,100146.78
2022-11-15T04:12:32.710Z,100153.69
2022-11-15T04:15:09.283Z,100151.28
2022-11-15T04:17:39.032Z,100151.50
2022-11-15T04:20:29.438Z,100148.22
2022-11-15T04:23:15.326Z,100137.09
2022-11-15T04:25:44.481Z,100136.63
2022-11-15T04:28:13.656Z,100140.06
2022-11-15T04:30:41.706Z,100136.63
2022-11-15T04:33:09.832Z,100135.25
2022-11-15T04:35:39.228Z,100131.88
2022-11-15T04:38:08.236Z,100134.66
2022-11-15T04:40:36.682Z,100141.75
2022-11-15T04:43:06.166Z,100144.78
2022-11-15T04:45:34.260Z,100135.53
2022-11-15T04:48:02.283Z,100141.38
2022-11-15T04:50:30.373Z,100144.56
2022-11-15T04:52:59.945Z,100139.13
2022-11-15T04:55:28.058Z,100139.19
2022-11-15T04:58:02.917Z,100131.69
2022-11-15T05:00:31.708Z,100128.31
2022-11-15T05:03:17.349Z,100127.56
2022-11-15T05:05:45.602Z,100132.78
2022-11-15T05:08:15.101Z,100133.09
2022-11-15T05:10:43.143Z,100133.09
2022-11-15T05:13:11.214Z,100139.88
2022-11-15T05:15:39.258Z,100138.91
2022-11-15T05:18:07.415Z,100142.28
2022-11-15T05:20:35.389Z,100136.22
2022-11-15T05:23:03.425Z,100145.25
2022-11-15T05:25:32.909Z,100131.13
2022-11-15T05:28:01.010Z,100133.16
2022-11-15T05:30:28.982Z,100137.56
2022-11-15T05:32:57.192Z,100137.56
2022-11-15T05:35:36.439Z,100139.81
2022-11-15T05:38:05.093Z,100140.13
2022-11-15T05:40:35.924Z,100137.13
2022-11-15T05:43:05.927Z,100135.66
2022-11-15T05:45:35.269Z,100141.88
2022-11-15T05:48:09.889Z,100141.38
2022-11-15T05:50:39.177Z,100144.81
2022-11-15T05:53:08.081Z,100148.44
2022-11-15T05:55:39.832Z,100148.81
2022-11-15T05:58:08.317Z,100151.16
2022-11-15T06:00:36.604Z,100160.25
2022-11-15T06:03:04.723Z,100158.63
2022-11-15T06:05:32.806Z,100157.38
2022-11-15T06:08:01.343Z,100160.91
2022-11-15T06:10:29.417Z,100162.44
2022-11-15T06:13:02.520Z,100159.97
2022-11-15T06:15:30.707Z,100165.31
2022-11-15T06:17:59.523Z,100156.44
2022-11-15T06:20:28.093Z,100159.34
2022-11-15T06:23:00.052Z,100163.78
2022-11-15T06:25:28.492Z,100169.31
2022-11-15T06:27:57.957Z,100163.59
2022-11-15T06:30:28.643Z,100164.69
2022-11-15T06:33:02.852Z,100159.16
2022-11-15T06:35:31.804Z,100163.31
2022-11-15T06:38:05.811Z,100161.78
2022-11-15T06:40:35.961Z,100161.06
2022-11-15T06:43:04.523Z,100152.19
2022-11-15T06:45:34.730Z,100157.75
2022-11-15T06:48:02.917Z,100161.69
2022-11-15T06:50:31.053Z,100167.00
2022-11-15T06:53:04.635Z,100165.56
2022-11-15T06:55:32.806Z,100168.28
2022-11-15T06:58:00.869Z,100166.88
2022-11-15T07:00:28.978Z,100161.97
2022-11-15T07:03:02.103Z,100162.16
2022-11-15T07:05:30.738Z,100155.50
2022-11-15T07:07:59.921Z,100166.63
2022-11-15T07:10:29.742Z,100156.00
2022-11-15T07:12:58.587Z,100147.91
2022-11-15T07:15:27.932Z,100147.44
2022-11-15T07:17:56.031Z,100152.97
2022-11-15T07:20:25.656Z,100146.50
2022-11-15T07:22:53.654Z,100144.56
2022-11-15T07:25:21.817Z,100144.56
2022-11-15T07:27:57.055Z,100143.13
2022-11-15T07:30:25.971Z,100142.97
2022-11-15T07:32:55.761Z,100140.13
2022-11-15T07:35:25.897Z,100150.78
2022-11-15T07:37:58.532Z,100143.91
2022-11-15T07:40:27.676Z,100155.03
2022-11-15T07:43:01.392Z,100138.16
2022-11-15T07:45:29.527Z,100140.38
2022-11-15T07:47:58.713Z,100142.88
2022-11-15T07:50:29.258Z,100141.53
2022-11-15T07:52:57.760Z,100133.84
2022-11-15T07:55:26.352Z,100137.09
2022-11-15T07:57:54.400Z,100138.97
2022-11-15T08:00:22.615Z,100141.59
2022-11-15T08:02:50.966Z,100138.97
2022-11-15T08:05:19.027Z,100132.00
2022-11-15T08:07:48.487Z,100136.78
2022-11-15T08:10:20.352Z,100135.41
2022-11-15T08:12:48.806Z,100132.81
2022-11-15T08:15:17.084Z,100133.44
2022-11-15T08:17:45.205Z,100124.66
2022-11-15T08:20:13.591Z,100124.06
2022-11-15T08:22:41.691Z,100124.06
2022-11-15T08:25:11.222Z,100123.56
2022-11-15T08:27:39.341Z,100119.59
2022-11-15T08:30:08.498Z,100121.81
2022-11-15T08:32:36.691Z,100125.00
2022-11-15T08:35:05.214Z,100119.72
2022-11-15T08:37:33.224Z,100116.78
2022-11-15T08:40:01.334Z,100116.78
2022-11-15T08:42:30.820Z,100120.38
2022-11-15T08:44:58.886Z,100118.16
2022-11-15T08:47:27.549Z,100113.41
2022-11-15T08:49:55.796Z,100110.00
2022-11-15T08:52:24.029Z,100102.00
2022-11-15T08:54:52.076Z,100102.47
2022-11-15T08:57:20.447Z,100101.13
2022-11-15T08:59:49.892Z,100095.94
2022-11-15T09:02:18.586Z,100088.25
2022-11-15T09:04:46.774Z,100088.19
2022-11-15T09:07:16.208Z,100083.94
2022-11-15T09:09:44.559Z,100082.94
2022-11-15T09:12:12.718Z,100076.50
2022-11-15T09:14:41.148Z,100073.56
2022-11-15T09:17:11.579Z,100065.09
2022-11-15T09:19:39.643Z,100056.81
2022-11-15T09:22:08.888Z,100051.38
2022-11-15T09:24:37.397Z,100048.00
2022-11-15T09:29:50.728Z,100037.91
2022-11-15T09:32:20.238Z,100039.72
2022-11-15T09:34:48.358Z,100027.09
2022-11-15T09:37:16.450Z,100028.25
2022-11-15T09:39:44.926Z,100020.66
2022-11-15T09:42:37.273Z,100020.03
2022-11-15T09:45:19.522Z,100014.22
2022-11-15T09:48:06.700Z,100013.22
2022-11-15T09:50:42.293Z,100009.31
2022-11-15T09:53:15.737Z,100006.34
2022-11-15T09:55:53.320Z,100007.50
2022-11-15T09:58:29.479Z,100008.84
2022-11-15T10:01:01.761Z,100008.78
2022-11-15T10:03:35.970Z,99988.81
2022-11-15T10:06:06.830Z,99986.31
2022-11-15T10:08:47.043Z,99983.81
2022-11-15T10:11:37.879Z,99984.63
2022-11-15T10:14:13.742Z,99973.88
2022-11-15T10:17:08.889Z,99976.72
2022-11-15T10:19:49.844Z,99973.75
2022-11-15T10:22:30.393Z,99966.75
2022-11-15T10:25:22.486Z,99961.75
2022-11-15T10:27:56.886Z,99971.06
2022-11-15T10:30:30.931Z,99964.56
2022-11-15T10:32:59.002Z,99955.25
2022-11-15T10:35:30.547Z,99955.47
2022-11-15T10:38:08.944Z,99947.25
2022-11-15T10:40:37.806Z,99945.81
2022-11-15T10:43:17.648Z,99946.81
2022-11-15T10:45:46.579Z,99939.38
2022-11-15T10:48:27.471Z,99928.47
2022-11-15T10:50:57.595Z,99926.47
2022-11-15T10:53:33.768Z,99922.66
2022-11-15T10:56:05.692Z,99917.22
2022-11-15T10:58:38.846Z,99920.22
2022-11-15T11:01:19.182Z,99909.28
2022-11-15T11:04:00.568Z,99911.91
2022-11-15T11:06:30.386Z,99903.34
2022-11-15T11:09:00.003Z,99902.84
2022-11-15T11:11:47.187Z,99898.97
2022-11-15T11:14:20.991Z,99894.72
2022-11-15T11:16:54.379Z,99895.06
2022-11-15T11:19:38.514Z,99890.41
2022-11-15T11:22:15.407Z,99891.41
2022-11-15T11:24:47.377Z,99872.53
2022-11-15T11:27:24.153Z,99868.13
2022-11-15T11:30:05.831Z,99865.56
2022-11-15T11:32:56.714Z,99858.47
2022-11-15T11:35:33.082Z,99858.84
2022-11-15T11:38:23.218Z,99849.94
2022-11-15T11:41:03.276Z,99852.13
2022-11-15T11:43:42.993Z,99851.25
2022-11-15T11:46:38.429Z,99844.25
2022-11-15T11:49:12.421Z,99846.03
2022-11-15T11:51:44.558Z,99841.44
2022-11-15T11:54:20.113Z,99842.97
2022-11-15T11:56:48.642Z,99841.44
2022-11-15T11:59:25.163Z,99835.72
2022-11-15T12:01:53.992Z,99824.69
2022-11-15T12:04:29.226Z,99823.88
2022-11-15T12:07:02.432Z,99820.88
2022-11-15T12:09:36.136Z,99820.66
2022-11-15T12:12:12.093Z,99820.06
2022-11-15T12:14:46.193Z,99816.88
2022-11-15T12:17:15.524Z,99810.38
2022-11-15T12:19:43.989Z,99806.34
2022-11-15T12:22:26.466Z,99804.69
2022-11-15T12:25:00.140Z,99797.81
2022-11-15T12:27:35.717Z,99797.31
2022-11-15T12:30:10.855Z,99786.13
2022-11-15T12:32:42.184Z,99786.97
2022-11-15T12:35:26.766Z,99782.66
2022-11-15T12:37:58.230Z,99787.25
2022-11-15T12:40:38.668Z,99786.19
2022-11-15T12:43:42.386Z,99777.97
2022-11-15T12:46:21.536Z,99781.81
2022-11-15T12:48:55.900Z,99775.53
2022-11-15T12:51:59.602Z,99774.53
2022-11-15T12:55:03.905Z,99767.50
2022-11-15T12:57:40.986Z,99762.00
2022-11-15T13:00:45.845Z,99753.59
2022-11-15T13:03:28.216Z,99749.91
2022-11-15T13:06:31.493Z,99749.59
2022-11-15T13:08:59.579Z,99740.38
2022-11-15T13:11:51.690Z,99748.66
2022-11-15T13:14:53.260Z,99741.84
2022-11-15T13:17:34.933Z,99742.63
2022-11-15T13:20:22.452Z,99743.84
2022-11-15T13:22:57.616Z,99738.56
2022-11-15T13:25:55.305Z,99732.63
2022-11-15T13:28:35.051Z,99729.28
2022-11-15T13:31:16.901Z,99732.72
2022-11-15T13:33:46.363Z,99725.63
2022-11-15T13:36:18.550Z,99720.03
2022-11-15T13:38:46.748Z,99723.69
2022-11-15T13:41:21.393Z,99725.09
2022-11-15T13:43:50.726Z,99733.34
2022-11-15T13:46:22.687Z,99723.84
2022-11-15T13:48:55.720Z,99722.22
2022-11-15T13:51:31.067Z,99722.16
2022-11-15T13:54:04.022Z,99720.69
2022-11-15T13:56:35.108Z,99717.81
2022-11-15T13:59:10.227Z,99711.34
2022-11-15T14:01:43.976Z,99715.69
2022-11-15T14:04:16.273Z,99706.22
2022-11-15T14:06:49.966Z,99716.38
2022-11-15T14:09:36.148Z,99710.75
2022-11-15T14:12:20.468Z,99709.41
2022-11-15T14:14:49.331Z,99713.69
2022-11-15T14:17:24.744Z,99701.53
2022-11-15T14:19:53.469Z,99710.38
2022-11-15T14:22:27.028Z,99696.91
2022-11-15T14:25:18.117Z,99706.28
2022-11-15T14:27:47.465Z,99705.41
2022-11-15T14:30:17.829Z,99703.75
2022-11-15T14:32:49.576Z,99708.16
2022-11-15T14:35:20.896Z,99705.63
2022-11-15T14:37:49.355Z,99708.16
2022-11-15T14:40:20.321Z,99704.38
2022-11-15T14:42:50.136Z,99701.59
2022-11-15T14:45:20.369Z,99699.06
2022-11-15T14:47:50.212Z,99701.66
2022-11-15T14:50:21.921Z,99693.19
2022-11-15T14:52:50.417Z,99694.47
2022-11-15T14:55:24.332Z,99685.13
2022-11-15T14:57:53.509Z,99688.78
2022-11-15T15:00:21.799Z,99697.19
2022-11-15T15:02:52.764Z,99692.78
2022-11-15T15:05:23.031Z,99689.63
2022-11-15T15:07:52.692Z,99683.59
2022-11-15T15:13:18.845Z,99690.41
2022-11-15T15:15:47.517Z,99692.22
2022-11-15T15:18:17.562Z,99690.72
2022-11-15T15:20:47.408Z,99693.47
2022-11-15T15:23:19.944Z,99693.97
2022-11-15T15:25:50.104Z,99687.56
2022-11-15T15:28:18.597Z,99691.06
2022-11-15T15:30:46.639Z,99698.06
2022-11-15T15:33:16.065Z,99685.78
2022-11-15T15:35:44.714Z,99700.38
2022-11-15T15:38:14.117Z,99696.06
2022-11-15T15:40:42.454Z,99687.84
2022-11-15T15:43:10.735Z,99694.97
2022-11-15T15:45:40.363Z,99695.19
2022-11-15T15:48:11.331Z,99700.50
2022-11-15T15:50:41.298Z,99696.13
2022-11-15T15:53:09.377Z,99697.03
2022-11-15T15:55:37.445Z,99698.41
2022-11-15T15:58:05.910Z,99698.75
2022-11-15T16:00:34.746Z,99695.72
2022-11-15T16:03:02.900Z,99692.00
2022-11-15T16:05:31.128Z,99690.53
2022-11-15T16:08:00.814Z,99691.09
2022-11-15T16:10:31.414Z,99696.28
2022-11-15T16:13:00.124Z,99692.66
2022-11-15T16:15:29.712Z,99692.56
2022-11-15T16:17:59.442Z,99684.66
2022-11-15T16:20:36.884Z,99696.03
2022-11-15T16:23:09.607Z,99694.66
2022-11-15T16:25:43.522Z,99687.34
2022-11-15T16:28:21.137Z,99693.91
2022-11-15T16:30:55.498Z,99679.69
2022-11-15T16:33:25.413Z,99676.09
2022-11-15T16:35:53.709Z,99666.63
2022-11-15T16:38:23.383Z,99658.94
2022-11-15T16:40:51.541Z,99672.56
2022-11-15T16:43:19.619Z,99679.00
2022-11-15T16:45:47.877Z,99684.25
2022-11-15T16:48:25.283Z,99686.28
2022-11-15T16:50:57.443Z,99679.06
2022-11-15T16:53:27.926Z,99673.75
2022-11-15T16:55:57.184Z,99682.31
2022-11-15T16:58:25.885Z,99683.78
2022-11-15T17:00:55.046Z,99686.53
2022-11-15T17:03:23.465Z,99676.72
2022-11-15T17:05:52.301Z,99681.53
2022-11-15T17:08:22.105Z,99679.97
2022-11-15T17:10:51.705Z,99675.69
2022-11-15T17:13:19.931Z,99674.78
2022-11-15T17:15:48.095Z,99671.94
2022-11-15T17:18:16.375Z,99670.34
2022-11-15T17:20:44.575Z,99665.31
2022-11-15T17:23:15.357Z,99664.84
2022-11-15T17:25:43.697Z,99666.75
2022-11-15T17:28:13.285Z,99666.16
2022-11-15T17:30:43.881Z,99665.91
2022-11-15T17:33:12.047Z,99653.41
2022-11-15T17:35:40.103Z,99647.41
2022-11-15T17:38:08.712Z,99652.34
2022-11-15T17:40:36.903Z,99645.69
2022-11-15T17:43:06.926Z,99640.63
2022-11-15T17:45:38.295Z,99643.78
2022-11-15T17:48:06.849Z,99648.09
2022-11-15T17:50:35.134Z,99640.09
2022-11-15T17:53:03.279Z,99641.09
2022-11-15T17:55:31.395Z,99637.13
2022-11-15T17:57:59.559Z,99638.25
2022-11-15T18:00:27.664Z,99641.28
2022-11-15T18:02:58.351Z,99640.50
2022-11-15T18:05:26.376Z,99635.75
2022-11-15T18:07:54.510Z,99638.00
2022-11-15T18:10:22.516Z,99634.69
2022-11-15T18:12:50.540Z,99625.81
2022-11-15T18:15:19.201Z,99620.09
2022-11-15T18:17:47.613Z,99621.22
2022-11-15T18:20:17.985Z,99625.50
2022-11-15T18:22:50.444Z,99623.00
2022-11-15T18:25:18.482Z,99618.31
2022-11-15T18:27:46.730Z,99622.59
2022-11-15T18:30:15.262Z,99617.66
2022-11-15T18:32:43.376Z,99619.88
2022-11-15T18:35:11.453Z,99615.16
2022-11-15T18:37:40.985Z,99617.81
2022-11-15T18:40:10.740Z,99611.03
2022-11-15T18:42:38.972Z,99608.72
2022-11-15T18:45:07.881Z,99607.22
2022-11-15T18:47:36.014Z,99602.97
2022-11-15T18:50:04.678Z,99602.06
2022-11-15T18:52:32.798Z,99594.59
2022-11-15T18:55:02.363Z,99592.38
2022-11-15T18:57:31.877Z,99585.28
2022-11-15T19:00:01.128Z,99590.53
2022-11-15T19:02:29.876Z,99583.09
2022-11-15T19:04:57.975Z,99585.59
2022-11-15T19:07:26.209Z,99587.97
2022-11-15T19:09:54.317Z,99583.09
2022-11-15T19:12:23.791Z,99585.19
2022-11-15T19:14:51.876Z,99585.06
2022-11-15T19:17:20.134Z,99578.72
2022-11-15T19:19:48.237Z,99585.72
2022-11-15T19:22:16.594Z,99583.13
2022-11-15T19:24:44.783Z,99584.28
2022-11-15T19:27:13.182Z,99579.41
2022-11-15T19:29:42.565Z,99583.09
2022-11-15T19:32:10.665Z,99585.78
2022-11-15T19:34:41.733Z,99588.28
2022-11-15T19:37:09.992Z,99580.81
2022-11-15T19:39:41.024Z,99586.03
2022-11-15T19:42:09.733Z,99586.06
2022-11-15T19:44:37.844Z,99589.28
2022-11-15T19:47:09.413Z,99576.59
2022-11-15T19:49:37.637Z,99579.50
2022-11-15T19:52:06.288Z,99574.81
2022-11-15T19:54:34.381Z,99570.38
2022-11-15T19:57:02.551Z,99565.63
2022-11-15T19:59:30.673Z,99571.78
2022-11-15T20:01:58.702Z,99568.44
2022-11-15T20:04:28.262Z,99562.75
2022-11-15T20:06:56.397Z,99569.06
2022-11-15T20:09:25.943Z,99561.97
2022-11-15T20:11:54.126Z,99561.88
2022-11-15T20:14:23.972Z,99565.38
2022-11-15T20:16:54.370Z,99553.22
2022-11-15T20:19:22.770Z,99546.56
2022-11-15T20:21:52.220Z,99553.06
2022-11-15T20:24:20.350Z,99552.75
2022-11-15T20:26:48.514Z,99551.91
2022-11-15T20:29:16.799Z,99546.88
2022-11-15T20:31:44.845Z,99554.25
2022-11-15T20:34:12.967Z,99554.53
2022-11-15T20:36:40.973Z,99550.09
2022-11-15T20:39:11.932Z,99547.53
2022-11-15T20:41:40.036Z,99551.53
2022-11-15T20:44:08.052Z,99556.91
2022-11-15T20:46:36.130Z,99548.50
2022-11-15T20:49:04.238Z,99543.63
2022-11-15T20:51:32.380Z,99552.34
2022-11-15T20:54:00.447Z,99543.31
2022-11-15T20:56:29.996Z,99541.63
2022-11-15T20:58:58.612Z,99536.88
2022-11-15T21:01:26.897Z,99533.72
2022-11-15T21:03:56.411Z,99525.38
2022-11-15T21:06:25.656Z,99524.28
2022-11-15T21:09:12.356Z,99527.94
2022-11-15T21:11:59.329Z,99519.22
2022-11-15T21:14:27.500Z,99519.41
2022-11-15T21:16:56.140Z,99512.13
2022-11-15T21:19:29.009Z,99508.81
2022-11-15T21:22:00.705Z,99507.41
2022-11-15T21:24:28.831Z,99502.47
2022-11-15T21:26:58.359Z,99505.66
2022-11-15T21:29:26.510Z,99497.09
2022-11-15T21:31:54.608Z,99499.66
2022-11-15T21:34:22.824Z,99501.09
2022-11-15T21:36:50.901Z,99500.44
2022-11-15T21:39:19.050Z,99493.81
2022-11-15T21:41:47.081Z,99490.03
2022-11-15T21:44:16.840Z,99484.81
2022-11-15T21:46:44.864Z,99481.34
2022-11-15T21:49:12.953Z,99480.06
2022-11-15T21:51:41.226Z,99478.31
2022-11-15T21:54:09.650Z,99475.00
2022-11-15T21:56:37.964Z,99473.44
2022-11-15T21:59:06.204Z,99469.47
2022-11-15T22:01:53.257Z,99472.00
2022-11-15T22:04:24.092Z,99466.75
2022-11-15T22:06:52.605Z,99471.53
2022-11-15T22:09:20.717Z,99468.84
2022-11-15T22:11:48.817Z,99459.38
2022-11-15T22:14:17.365Z,99451.75
2022-11-15T22:16:46.935Z,99455.72
2022-11-15T22:19:15.141Z,99460.97
2022-11-15T22:21:43.395Z,99451.16
2022-11-15T22:24:11.764Z,99457.47
2022-11-15T22:26:40.281Z,99449.09
2022-11-15T22:29:08.406Z,99443.41
2022-11-15T22:31:36.607Z,99433.72
2022-11-15T22:34:06.234Z,99435.34
2022-11-15T22:36:52.264Z,99432.78
2022-11-15T22:39:22.593Z,99430.59
2022-11-15T22:41:50.753Z,99425.19
2022-11-15T22:44:18.954Z,99420.94
2022-11-15T22:46:47.242Z,99420.94
2022-11-15T22:49:16.971Z,99414.72
2022-11-15T22:51:45.103Z,99409.72
2022-11-15T22:54:13.381Z,99411.13
2022-11-15T22:56:41.581Z,99404.66
2022-11-15T22:59:09.860Z,99396.44
2022-11-15T23:01:38.111Z,99404.50
2022-11-15T23:04:06.624Z,99400.41
2022-11-15T23:06:37.025Z,99387.75
2022-11-15T23:09:05.326Z,99391.69
2022-11-15T23:11:50.770Z,99398.34
2022-11-15T23:14:18.935Z,99395.19
2022-11-15T23:16:47.100Z,99389.03
2022-11-15T23:19:15.435Z,99386.50
2022-11-15T23:22:04.087Z,99388.72
2022-11-15T23:24:33.161Z,99372.41
2022-11-15T23:27:03.737Z,99379.06
2022-11-15T23:29:32.196Z,99366.09
2022-11-15T23:32:18.027Z,99359.75
2022-11-15T23:34:47.325Z,99354.19
2022-11-15T23:37:17.182Z,99360.06
2022-11-15T23:39:45.343Z,99347.69
2022-11-15T23:42:20.192Z,99347.72
2022-11-15T23:44:50.661Z,99351.19
2022-11-15T23:47:19.323Z,99358.00
2022-11-15T23:49:47.510Z,99353.28
2022-11-15T23:52:17.498Z,99345.81
2022-11-15T23:54:45.756Z,99339.81
2022-11-15T23:57:13.942Z,99338.84
2022-11-15T23:59:44.168Z,99340.44
